Santa Luzia, Brazil
Current Conditions -  °F | °C
As of 12:00 PM on Friday 24 Oct 2014 (Local Time) from SBCF Reporting Station
Few Clouds Few Clouds  
Wind Chill: 81°   Ceiling: Unl
Heat Index: 81°   Visibility: 6mi
Dew Point: 50°   Wind: 6mph
Humidity: 34%   Direction: 100°E
Pressure: 30.09"   Gusts: NA
Location:  19.77°S, 43.85°W
Report Text: SBCF 241400Z 10005KT 9999 FEW030 27/10 Q1019
Loading
Personal Weather Stations






























Interactive Weather Map
Tropical Storm Tracking
New forecast layout! Learn more

10-Day Weather Forecast

Advertisements
Track Severe Weather on mobile